sensor_id;sensor_type;location;lat;lon;timestamp;pressure;altitude;pressure_sealevel;temperature;humidity
67738;BME280;54534;43.612;1.572;2023-03-03T00:00:08;99544.78;;;18.78;37.90
67738;BME280;54534;43.612;1.572;2023-03-03T00:02:33;99544.03;;;18.76;37.48
67738;BME280;54534;43.612;1.572;2023-03-03T00:04:59;99535.28;;;18.74;37.42
67738;BME280;54534;43.612;1.572;2023-03-03T00:07:24;99537.09;;;18.74;37.36
67738;BME280;54534;43.612;1.572;2023-03-03T00:09:50;99539.03;;;18.72;37.31
67738;BME280;54534;43.612;1.572;2023-03-03T00:12:27;99538.19;;;18.71;37.44
67738;BME280;54534;43.612;1.572;2023-03-03T00:14:53;99535.66;;;18.70;37.29
67738;BME280;54534;43.612;1.572;2023-03-03T00:17:29;99533.13;;;18.68;37.33
67738;BME280;54534;43.612;1.572;2023-03-03T00:19:54;99543.00;;;18.66;37.11
67738;BME280;54534;43.612;1.572;2023-03-03T00:24:48;99533.56;;;18.62;37.22
67738;BME280;54534;43.612;1.572;2023-03-03T00:27:29;99537.19;;;18.61;36.96
67738;BME280;54534;43.612;1.572;2023-03-03T00:29:57;99528.47;;;18.59;36.94
67738;BME280;54534;43.612;1.572;2023-03-03T00:32:26;99525.94;;;18.57;36.93
67738;BME280;54534;43.612;1.572;2023-03-03T00:34:54;99530.41;;;18.56;36.91
67738;BME280;54534;43.612;1.572;2023-03-03T00:37:32;99521.69;;;18.54;36.66
67738;BME280;54534;43.612;1.572;2023-03-03T00:40:13;99525.31;;;18.53;36.52
67738;BME280;54534;43.612;1.572;2023-03-03T00:42:41;99521.91;;;18.51;36.61
67738;BME280;54534;43.612;1.572;2023-03-03T00:45:31;99520.19;;;18.50;36.75
67738;BME280;54534;43.612;1.572;2023-03-03T00:48:10;99527.47;;;18.48;36.69
67738;BME280;54534;43.612;1.572;2023-03-03T00:50:42;99524.06;;;18.46;36.79
67738;BME280;54534;43.612;1.572;2023-03-03T00:53:15;99517.03;;;18.45;36.82
67738;BME280;54534;43.612;1.572;2023-03-03T00:55:42;99520.69;;;18.44;36.68
67738;BME280;54534;43.612;1.572;2023-03-03T00:58:08;99518.97;;;18.43;36.81
67738;BME280;54534;43.612;1.572;2023-03-03T01:00:34;99519.97;;;18.42;36.74
67738;BME280;54534;43.612;1.572;2023-03-03T01:03:06;99521.84;;;18.40;36.75
67738;BME280;54534;43.612;1.572;2023-03-03T01:05:32;99519.19;;;18.40;36.75
67738;BME280;54534;43.612;1.572;2023-03-03T01:07:57;99515.81;;;18.38;36.63
67738;BME280;54534;43.612;1.572;2023-03-03T01:10:23;99514.09;;;18.37;36.25
67738;BME280;54534;43.612;1.572;2023-03-03T01:12:50;99515.06;;;18.36;36.05
67738;BME280;54534;43.612;1.572;2023-03-03T01:15:16;99513.38;;;18.34;36.57
67738;BME280;54534;43.612;1.572;2023-03-03T01:17:42;99511.78;;;18.32;36.12
67738;BME280;54534;43.612;1.572;2023-03-03T01:20:09;99515.31;;;18.32;36.35
67738;BME280;54534;43.612;1.572;2023-03-03T01:22:35;99513.59;;;18.31;36.52
67738;BME280;54534;43.612;1.572;2023-03-03T01:25:00;99512.00;;;18.29;36.46
67738;BME280;54534;43.612;1.572;2023-03-03T01:27:28;99513.00;;;18.28;36.14
67738;BME280;54534;43.612;1.572;2023-03-03T01:29:54;99511.28;;;18.27;36.39
67738;BME280;54534;43.612;1.572;2023-03-03T01:32:21;99506.09;;;18.25;36.44
67738;BME280;54534;43.612;1.572;2023-03-03T01:34:47;99505.22;;;18.25;36.09
67738;BME280;54534;43.612;1.572;2023-03-03T01:37:13;99510.69;;;18.23;36.06
67738;BME280;54534;43.612;1.572;2023-03-03T01:39:38;99511.63;;;18.22;36.03
67738;BME280;54534;43.612;1.572;2023-03-03T01:42:04;99502.03;;;18.19;35.93
67738;BME280;54534;43.612;1.572;2023-03-03T01:44:29;99507.34;;;18.19;36.07
67738;BME280;54534;43.612;1.572;2023-03-03T01:49:45;99500.44;;;18.17;36.28
67738;BME280;54534;43.612;1.572;2023-03-03T01:54:49;99505.03;;;18.15;35.92
67738;BME280;54534;43.612;1.572;2023-03-03T01:57:30;99498.00;;;18.14;35.86
67738;BME280;54534;43.612;1.572;2023-03-03T01:59:58;99500.78;;;18.12;36.33
67738;BME280;54534;43.612;1.572;2023-03-03T02:02:26;99502.59;;;18.11;36.36
67738;BME280;54534;43.612;1.572;2023-03-03T02:04:52;99503.53;;;18.10;35.94
67738;BME280;54534;43.612;1.572;2023-03-03T02:07:18;99500.16;;;18.08;36.20
67738;BME280;54534;43.612;1.572;2023-03-03T02:12:16;99492.41;;;18.05;36.23
67738;BME280;54534;43.612;1.572;2023-03-03T02:14:42;99493.38;;;18.04;36.25
67738;BME280;54534;43.612;1.572;2023-03-03T02:17:08;99490.72;;;18.04;36.12
67738;BME280;54534;43.612;1.572;2023-03-03T02:19:42;99489.00;;;18.03;36.09
67738;BME280;54534;43.612;1.572;2023-03-03T02:22:10;99495.31;;;18.02;36.15
67738;BME280;54534;43.612;1.572;2023-03-03T02:24:45;99487.41;;;18.00;35.89
67738;BME280;54534;43.612;1.572;2023-03-03T02:27:12;99481.25;;;18.00;36.28
67738;BME280;54534;43.612;1.572;2023-03-03T02:29:38;99479.56;;;17.99;35.97
67738;BME280;54534;43.612;1.572;2023-03-03T02:32:04;99479.66;;;17.97;35.93
67738;BME280;54534;43.612;1.572;2023-03-03T02:34:29;99476.13;;;17.97;35.82
67738;BME280;54534;43.612;1.572;2023-03-03T02:36:55;99474.47;;;17.96;36.06
67738;BME280;54534;43.612;1.572;2023-03-03T02:39:21;99476.25;;;17.95;36.06
67738;BME280;54534;43.612;1.572;2023-03-03T02:44:19;99476.38;;;17.94;36.32
67738;BME280;54534;43.612;1.572;2023-03-03T02:46:47;99472.97;;;17.92;35.81
67738;BME280;54534;43.612;1.572;2023-03-03T02:49:15;99472.97;;;17.92;35.90
67738;BME280;54534;43.612;1.572;2023-03-03T02:51:41;99480.22;;;17.89;35.72
67738;BME280;54534;43.612;1.572;2023-03-03T02:54:08;99474.91;;;17.89;35.76
67738;BME280;54534;43.612;1.572;2023-03-03T02:56:34;99473.22;;;17.88;36.13
67738;BME280;54534;43.612;1.572;2023-03-03T02:59:00;99473.22;;;17.88;36.13
67738;BME280;54534;43.612;1.572;2023-03-03T03:01:26;99468.84;;;17.87;35.65
67738;BME280;54534;43.612;1.572;2023-03-03T03:03:52;99464.59;;;17.85;35.71
67738;BME280;54534;43.612;1.572;2023-03-03T03:06:17;99476.09;;;17.85;35.80
67738;BME280;54534;43.612;1.572;2023-03-03T03:08:43;99471.72;;;17.84;35.85
67738;BME280;54534;43.612;1.572;2023-03-03T03:11:08;99470.06;;;17.83;35.76
67738;BME280;54534;43.612;1.572;2023-03-03T03:13:34;99474.50;;;17.83;35.89
67738;BME280;54534;43.612;1.572;2023-03-03T03:15:59;99471.94;;;17.81;35.87
67738;BME280;54534;43.612;1.572;2023-03-03T03:18:26;99471.94;;;17.81;35.86
67738;BME280;54534;43.612;1.572;2023-03-03T03:20:52;99474.72;;;17.79;35.91
67738;BME280;54534;43.612;1.572;2023-03-03T03:23:17;99464.22;;;17.78;35.71
67738;BME280;54534;43.612;1.572;2023-03-03T03:25:43;99468.56;;;17.79;36.11
67738;BME280;54534;43.612;1.572;2023-03-03T03:28:12;99465.16;;;17.77;35.93
67738;BME280;54534;43.612;1.572;2023-03-03T03:30:38;99473.16;;;17.77;35.97
67738;BME280;54534;43.612;1.572;2023-03-03T03:33:04;99467.94;;;17.75;35.56
67738;BME280;54534;43.612;1.572;2023-03-03T03:35:32;99471.56;;;17.74;35.97
67738;BME280;54534;43.612;1.572;2023-03-03T03:37:57;99470.69;;;17.74;35.81
67738;BME280;54534;43.612;1.572;2023-03-03T03:40:23;99470.69;;;17.74;35.86
67738;BME280;54534;43.612;1.572;2023-03-03T03:42:51;99470.81;;;17.72;35.79
67738;BME280;54534;43.612;1.572;2023-03-03T03:45:17;99468.16;;;17.72;35.91
67738;BME280;54534;43.612;1.572;2023-03-03T03:47:42;99472.63;;;17.72;35.70
67738;BME280;54534;43.612;1.572;2023-03-03T03:50:09;99467.44;;;17.70;36.02
67738;BME280;54534;43.612;1.572;2023-03-03T03:52:34;99463.91;;;17.70;35.95
67738;BME280;54534;43.612;1.572;2023-03-03T03:55:00;99471.16;;;17.67;35.93
67738;BME280;54534;43.612;1.572;2023-03-03T03:57:25;99466.69;;;17.68;35.71
67738;BME280;54534;43.612;1.572;2023-03-03T03:59:51;99470.31;;;17.67;35.53
67738;BME280;54534;43.612;1.572;2023-03-03T04:02:16;99471.25;;;17.66;35.81
67738;BME280;54534;43.612;1.572;2023-03-03T04:04:42;99472.13;;;17.66;35.98
67738;BME280;54534;43.612;1.572;2023-03-03T04:07:07;99478.38;;;17.65;35.73
67738;BME280;54534;43.612;1.572;2023-03-03T04:09:33;99479.38;;;17.64;35.66
67738;BME280;54534;43.612;1.572;2023-03-03T04:11:59;99475.84;;;17.64;35.86
67738;BME280;54534;43.612;1.572;2023-03-03T04:14:24;99484.78;;;17.63;35.89
67738;BME280;54534;43.612;1.572;2023-03-03T04:16:49;99483.94;;;17.62;35.92
67738;BME280;54534;43.612;1.572;2023-03-03T04:19:15;99477.88;;;17.60;35.43
67738;BME280;54534;43.612;1.572;2023-03-03T04:21:40;99485.84;;;17.60;35.79
67738;BME280;54534;43.612;1.572;2023-03-03T04:24:06;99485.84;;;17.60;35.58
67738;BME280;54534;43.612;1.572;2023-03-03T04:26:31;99481.50;;;17.59;35.50
67738;BME280;54534;43.612;1.572;2023-03-03T04:28:57;99478.84;;;17.59;35.83
67738;BME280;54534;43.612;1.572;2023-03-03T04:31:23;99479.78;;;17.58;35.51
67738;BME280;54534;43.612;1.572;2023-03-03T04:33:50;99483.53;;;17.55;35.56
67738;BME280;54534;43.612;1.572;2023-03-03T04:36:16;99483.53;;;17.55;35.50
67738;BME280;54534;43.612;1.572;2023-03-03T04:38:42;99480.00;;;17.55;35.74
67738;BME280;54534;43.612;1.572;2023-03-03T04:41:07;99478.31;;;17.54;35.45
67738;BME280;54534;43.612;1.572;2023-03-03T04:43:33;99481.00;;;17.54;35.83
67738;BME280;54534;43.612;1.572;2023-03-03T04:45:58;99481.00;;;17.54;35.71
67738;BME280;54534;43.612;1.572;2023-03-03T04:48:24;99484.59;;;17.53;35.89
67738;BME280;54534;43.612;1.572;2023-03-03T04:50:49;99482.88;;;17.52;35.59
67738;BME280;54534;43.612;1.572;2023-03-03T04:53:15;99484.72;;;17.51;35.70
67738;BME280;54534;43.612;1.572;2023-03-03T04:55:40;99480.34;;;17.50;35.41
67738;BME280;54534;43.612;1.572;2023-03-03T04:58:05;99486.53;;;17.51;35.75
67738;BME280;54534;43.612;1.572;2023-03-03T05:00:31;99481.41;;;17.48;35.53
67738;BME280;54534;43.612;1.572;2023-03-03T05:02:57;99490.13;;;17.50;35.54
67738;BME280;54534;43.612;1.572;2023-03-03T05:05:23;99482.28;;;17.48;35.85
67738;BME280;54534;43.612;1.572;2023-03-03T05:07:49;99485.88;;;17.47;35.86
67738;BME280;54534;43.612;1.572;2023-03-03T05:10:14;99485.03;;;17.47;35.72
67738;BME280;54534;43.612;1.572;2023-03-03T05:12:39;99483.34;;;17.45;35.49
67738;BME280;54534;43.612;1.572;2023-03-03T05:15:05;99488.66;;;17.45;35.53
67738;BME280;54534;43.612;1.572;2023-03-03T05:17:31;99484.28;;;17.44;35.49
67738;BME280;54534;43.612;1.572;2023-03-03T05:19:57;99486.94;;;17.44;35.59
67738;BME280;54534;43.612;1.572;2023-03-03T05:22:23;99486.22;;;17.42;35.58
67738;BME280;54534;43.612;1.572;2023-03-03T05:24:48;99483.56;;;17.42;35.77
67738;BME280;54534;43.612;1.572;2023-03-03T05:27:14;99483.56;;;17.42;35.56
67738;BME280;54534;43.612;1.572;2023-03-03T05:29:40;99486.22;;;17.42;35.72
67738;BME280;54534;43.612;1.572;2023-03-03T05:32:05;99484.50;;;17.41;35.71
67738;BME280;54534;43.612;1.572;2023-03-03T05:34:31;99493.44;;;17.40;35.75
67738;BME280;54534;43.612;1.572;2023-03-03T05:36:57;99490.88;;;17.39;35.81
67738;BME280;54534;43.612;1.572;2023-03-03T05:39:22;99490.88;;;17.39;35.58
67738;BME280;54534;43.612;1.572;2023-03-03T05:41:47;99485.69;;;17.37;35.46
67738;BME280;54534;43.612;1.572;2023-03-03T05:44:13;99494.53;;;17.38;35.66
67738;BME280;54534;43.612;1.572;2023-03-03T05:46:38;99495.47;;;17.37;35.71
67738;BME280;54534;43.612;1.572;2023-03-03T05:49:04;99492.72;;;17.38;35.42
67738;BME280;54534;43.612;1.572;2023-03-03T05:51:29;99490.16;;;17.37;35.58
67738;BME280;54534;43.612;1.572;2023-03-03T05:53:55;99489.28;;;17.36;35.31
67738;BME280;54534;43.612;1.572;2023-03-03T05:56:20;99494.59;;;17.36;35.80
67738;BME280;54534;43.612;1.572;2023-03-03T05:58:46;99492.19;;;17.33;35.62
67738;BME280;54534;43.612;1.572;2023-03-03T06:01:11;99498.25;;;17.35;35.84
67738;BME280;54534;43.612;1.572;2023-03-03T06:03:37;99494.72;;;17.34;35.55
67738;BME280;54534;43.612;1.572;2023-03-03T06:06:03;99493.88;;;17.34;35.77
67738;BME280;54534;43.612;1.572;2023-03-03T06:08:28;99505.34;;;17.34;35.60
67738;BME280;54534;43.612;1.572;2023-03-03T06:10:54;99498.34;;;17.33;35.88
67738;BME280;54534;43.612;1.572;2023-03-03T06:13:20;99500.16;;;17.33;35.98
67738;BME280;54534;43.612;1.572;2023-03-03T06:15:45;99494.84;;;17.33;35.74
67738;BME280;54534;43.612;1.572;2023-03-03T06:18:11;99500.16;;;17.33;36.04
67738;BME280;54534;43.612;1.572;2023-03-03T06:20:36;99498.44;;;17.32;35.98
67738;BME280;54534;43.612;1.572;2023-03-03T06:23:03;99505.56;;;17.31;36.36
67738;BME280;54534;43.612;1.572;2023-03-03T06:25:28;99502.91;;;17.31;36.21
67738;BME280;54534;43.612;1.572;2023-03-03T06:27:54;99502.06;;;17.31;36.21
67738;BME280;54534;43.612;1.572;2023-03-03T06:30:19;99506.53;;;17.30;35.85
67738;BME280;54534;43.612;1.572;2023-03-03T06:32:45;99511.00;;;17.30;35.98
67738;BME280;54534;43.612;1.572;2023-03-03T06:35:11;99512.69;;;17.31;35.88
67738;BME280;54534;43.612;1.572;2023-03-03T06:37:36;99511.00;;;17.30;36.28
67738;BME280;54534;43.612;1.572;2023-03-03T06:40:03;99518.13;;;17.29;36.28
67738;BME280;54534;43.612;1.572;2023-03-03T06:42:29;99522.59;;;17.29;36.17
67738;BME280;54534;43.612;1.572;2023-03-03T06:44:54;99520.78;;;17.29;35.95
67738;BME280;54534;43.612;1.572;2023-03-03T06:47:20;99527.81;;;17.30;36.12
67738;BME280;54534;43.612;1.572;2023-03-03T06:49:46;99521.72;;;17.28;36.37
67738;BME280;54534;43.612;1.572;2023-03-03T06:52:19;99520.91;;;17.28;36.10
67738;BME280;54534;43.612;1.572;2023-03-03T06:54:46;99528.88;;;17.28;36.37
67738;BME280;54534;43.612;1.572;2023-03-03T06:57:29;99526.31;;;17.26;36.17
67738;BME280;54534;43.612;1.572;2023-03-03T07:00:01;99527.16;;;17.27;36.05
67738;BME280;54534;43.612;1.572;2023-03-03T07:02:34;99526.31;;;17.26;36.04
67738;BME280;54534;43.612;1.572;2023-03-03T07:05:00;99533.41;;;17.26;36.25
67738;BME280;54534;43.612;1.572;2023-03-03T07:07:25;99532.69;;;17.23;36.04
67738;BME280;54534;43.612;1.572;2023-03-03T07:09:53;99530.97;;;17.22;36.18
67738;BME280;54534;43.612;1.572;2023-03-03T07:12:25;99537.06;;;17.25;36.05
67738;BME280;54534;43.612;1.572;2023-03-03T07:15:21;99541.50;;;17.24;36.39
67738;BME280;54534;43.612;1.572;2023-03-03T07:17:49;99546.09;;;17.22;36.44
67738;BME280;54534;43.612;1.572;2023-03-03T07:20:22;99550.56;;;17.21;36.10
67738;BME280;54534;43.612;1.572;2023-03-03T07:22:48;99543.53;;;17.20;36.18
67738;BME280;54534;43.612;1.572;2023-03-03T07:25:27;99551.50;;;17.20;36.40
67738;BME280;54534;43.612;1.572;2023-03-03T07:27:58;99547.16;;;17.19;36.37
67738;BME280;54534;43.612;1.572;2023-03-03T07:30:25;99547.16;;;17.19;36.31
67738;BME280;54534;43.612;1.572;2023-03-03T07:32:53;99558.59;;;17.20;36.13
67738;BME280;54534;43.612;1.572;2023-03-03T07:35:43;99567.56;;;17.19;36.29
67738;BME280;54534;43.612;1.572;2023-03-03T07:38:34;99563.09;;;17.19;36.21
67738;BME280;54534;43.612;1.572;2023-03-03T07:41:04;99561.38;;;17.18;36.31
67738;BME280;54534;43.612;1.572;2023-03-03T07:44:05;99569.34;;;17.18;36.17
67738;BME280;54534;43.612;1.572;2023-03-03T07:49:29;99566.50;;;17.21;36.06
67738;BME280;54534;43.612;1.572;2023-03-03T07:51:58;99565.50;;;17.22;36.28
67738;BME280;54534;43.612;1.572;2023-03-03T07:54:39;99568.94;;;17.25;35.94
67738;BME280;54534;43.612;1.572;2023-03-03T07:57:11;99566.16;;;17.26;35.93
67738;BME280;54534;43.612;1.572;2023-03-03T07:59:49;99572.22;;;17.28;36.24
67738;BME280;54534;43.612;1.572;2023-03-03T08:10:42;99566.59;;;17.33;35.90
67738;BME280;54534;43.612;1.572;2023-03-03T08:13:16;99568.19;;;17.36;35.91
67738;BME280;54534;43.612;1.572;2023-03-03T08:15:44;99564.56;;;17.37;36.25
67738;BME280;54534;43.612;1.572;2023-03-03T08:18:43;99564.47;;;17.38;35.80
67738;BME280;54534;43.612;1.572;2023-03-03T08:21:19;99567.13;;;17.38;35.91
67738;BME280;54534;43.612;1.572;2023-03-03T08:23:45;99575.84;;;17.40;35.82
67738;BME280;54534;43.612;1.572;2023-03-03T08:26:11;99569.56;;;17.41;36.25
67738;BME280;54534;43.612;1.572;2023-03-03T08:28:38;99572.97;;;17.43;35.77
67738;BME280;54534;43.612;1.572;2023-03-03T08:31:04;99578.31;;;17.43;35.70
67738;BME280;54534;43.612;1.572;2023-03-03T08:33:29;99583.50;;;17.45;35.76
67738;BME280;54534;43.612;1.572;2023-03-03T08:35:54;99585.22;;;17.46;35.56
67738;BME280;54534;43.612;1.572;2023-03-03T08:38:20;99580.72;;;17.47;35.49
67738;BME280;54534;43.612;1.572;2023-03-03T08:40:47;99588.59;;;17.48;35.97
67738;BME280;54534;43.612;1.572;2023-03-03T08:43:13;99592.94;;;17.49;35.99
67738;BME280;54534;43.612;1.572;2023-03-03T08:45:46;99589.47;;;17.49;35.59
67738;BME280;54534;43.612;1.572;2023-03-03T08:48:12;99596.47;;;17.50;35.70
67738;BME280;54534;43.612;1.572;2023-03-03T08:50:38;99587.53;;;17.51;35.83
67738;BME280;54534;43.612;1.572;2023-03-03T08:53:04;99590.28;;;17.49;35.54
67738;BME280;54534;43.612;1.572;2023-03-03T08:55:30;99588.41;;;17.51;35.65
67738;BME280;54534;43.612;1.572;2023-03-03T08:57:55;99590.94;;;17.53;35.60
67738;BME280;54534;43.612;1.572;2023-03-03T09:00:22;99594.44;;;17.53;35.72
67738;BME280;54534;43.612;1.572;2023-03-03T09:02:48;99603.28;;;17.54;35.56
67738;BME280;54534;43.612;1.572;2023-03-03T09:05:15;99596.13;;;17.54;35.51
67738;BME280;54534;43.612;1.572;2023-03-03T09:07:42;99599.66;;;17.55;35.61
67738;BME280;54534;43.612;1.572;2023-03-03T09:10:09;99597.84;;;17.55;35.42
67738;BME280;54534;43.612;1.572;2023-03-03T09:12:43;99601.25;;;17.58;35.57
67738;BME280;54534;43.612;1.572;2023-03-03T09:15:33;99602.97;;;17.59;35.44
67738;BME280;54534;43.612;1.572;2023-03-03T09:18:09;99610.94;;;17.59;35.57
67738;BME280;54534;43.612;1.572;2023-03-03T09:20:38;99605.63;;;17.59;35.37
67738;BME280;54534;43.612;1.572;2023-03-03T09:25:48;99612.63;;;17.60;35.65
67738;BME280;54534;43.612;1.572;2023-03-03T09:28:34;99611.59;;;17.62;35.46
67738;BME280;54534;43.612;1.572;2023-03-03T09:31:01;99602.84;;;17.60;35.51
67738;BME280;54534;43.612;1.572;2023-03-03T09:33:40;99600.94;;;17.62;35.18
67738;BME280;54534;43.612;1.572;2023-03-03T09:38:47;99600.94;;;17.62;35.64
67738;BME280;54534;43.612;1.572;2023-03-03T09:44:26;99599.13;;;17.63;35.55
67738;BME280;54534;43.612;1.572;2023-03-03T09:55:46;99606.25;;;17.62;35.19
67738;BME280;54534;43.612;1.572;2023-03-03T09:58:45;99612.41;;;17.63;35.64
67738;BME280;54534;43.612;1.572;2023-03-03T10:01:46;99607.94;;;17.63;35.08
67738;BME280;54534;43.612;1.572;2023-03-03T10:37:27;99613.91;;;17.67;35.09
67738;BME280;54534;43.612;1.572;2023-03-03T10:50:36;99610.91;;;17.72;35.35
67738;BME280;54534;43.612;1.572;2023-03-03T11:06:05;99592.19;;;17.73;35.28
67738;BME280;54534;43.612;1.572;2023-03-03T11:27:24;99583.13;;;17.76;34.70
67738;BME280;54534;43.612;1.572;2023-03-03T11:40:52;99578.66;;;17.76;35.03
67738;BME280;54534;43.612;1.572;2023-03-03T11:43:26;99581.34;;;17.76;34.94
67738;BME280;54534;43.612;1.572;2023-03-03T11:45:57;99575.16;;;17.76;34.95
67738;BME280;54534;43.612;1.572;2023-03-03T11:48:35;99566.22;;;17.77;34.71
67738;BME280;54534;43.612;1.572;2023-03-03T11:54:04;99566.22;;;17.77;34.87
67738;BME280;54534;43.612;1.572;2023-03-03T11:56:42;99560.06;;;17.76;35.04
67738;BME280;54534;43.612;1.572;2023-03-03T12:04:45;99557.41;;;17.76;34.81
67738;BME280;54534;43.612;1.572;2023-03-03T12:07:16;99561.78;;;17.77;34.89
67738;BME280;54534;43.612;1.572;2023-03-03T12:10:13;99559.97;;;17.78;35.11
67738;BME280;54534;43.612;1.572;2023-03-03T12:13:02;99561.66;;;17.79;34.73
67738;BME280;54534;43.612;1.572;2023-03-03T12:18:16;99559.00;;;17.79;34.92
67738;BME280;54534;43.612;1.572;2023-03-03T12:43:01;99533.97;;;17.82;34.94
67738;BME280;54534;43.612;1.572;2023-03-03T12:48:27;99526.00;;;17.82;35.01
67738;BME280;54534;43.612;1.572;2023-03-03T12:51:23;99528.56;;;17.83;34.61
67738;BME280;54534;43.612;1.572;2023-03-03T12:57:06;99528.56;;;17.83;34.70
67738;BME280;54534;43.612;1.572;2023-03-03T13:07:46;99514.28;;;17.84;34.98
67738;BME280;54534;43.612;1.572;2023-03-03T13:13:07;99509.69;;;17.86;35.06
67738;BME280;54534;43.612;1.572;2023-03-03T13:15:43;99505.34;;;17.85;34.67
67738;BME280;54534;43.612;1.572;2023-03-03T13:31:32;99502.56;;;17.87;35.12
67738;BME280;54534;43.612;1.572;2023-03-03T13:33:59;99514.06;;;17.87;34.83
67738;BME280;54534;43.612;1.572;2023-03-03T13:36:43;99505.16;;;17.88;35.08
67738;BME280;54534;43.612;1.572;2023-03-03T13:39:24;99521.94;;;17.89;35.07
67738;BME280;54534;43.612;1.572;2023-03-03T13:41:56;99512.16;;;17.89;34.90
67738;BME280;54534;43.612;1.572;2023-03-03T13:44:27;99521.94;;;17.89;34.98
67738;BME280;54534;43.612;1.572;2023-03-03T13:55:43;99511.28;;;17.89;34.78
67738;BME280;54534;43.612;1.572;2023-03-03T13:58:15;99518.31;;;17.90;34.85
67738;BME280;54534;43.612;1.572;2023-03-03T14:00:56;99512.16;;;17.89;34.69
67738;BME280;54534;43.612;1.572;2023-03-03T14:05:56;99503.94;;;17.93;35.01
67738;BME280;54534;43.612;1.572;2023-03-03T14:11:24;99506.59;;;17.93;34.76
67738;BME280;54534;43.612;1.572;2023-03-03T14:19:24;99511.94;;;17.93;35.01
67738;BME280;54534;43.612;1.572;2023-03-03T14:22:15;99503.00;;;17.94;34.66
67738;BME280;54534;43.612;1.572;2023-03-03T14:25:05;99503.94;;;17.93;34.96
67738;BME280;54534;43.612;1.572;2023-03-03T14:35:40;99495.00;;;17.94;35.12
67738;BME280;54534;43.612;1.572;2023-03-03T14:40:40;99495.97;;;17.93;35.09
67738;BME280;54534;43.612;1.572;2023-03-03T14:43:32;99481.72;;;17.94;34.81
67738;BME280;54534;43.612;1.572;2023-03-03T14:49:02;99487.84;;;17.94;34.72
67738;BME280;54534;43.612;1.572;2023-03-03T14:54:38;99500.22;;;17.95;35.09
67738;BME280;54534;43.612;1.572;2023-03-03T14:57:38;99495.75;;;17.96;34.52
67738;BME280;54534;43.612;1.572;2023-03-03T15:05:28;99490.44;;;17.96;35.06
67738;BME280;54534;43.612;1.572;2023-03-03T15:07:57;99498.28;;;17.97;34.62
67738;BME280;54534;43.612;1.572;2023-03-03T15:10:41;99499.13;;;17.98;35.14
67738;BME280;54534;43.612;1.572;2023-03-03T15:16:11;99499.13;;;17.98;34.93
67738;BME280;54534;43.612;1.572;2023-03-03T15:19:22;99497.44;;;17.97;35.03
67738;BME280;54534;43.612;1.572;2023-03-03T15:22:00;99500.09;;;17.97;34.93
67738;BME280;54534;43.612;1.572;2023-03-03T15:24:51;99495.75;;;17.96;35.13
67738;BME280;54534;43.612;1.572;2023-03-03T15:27:20;99507.25;;;17.96;34.89
67738;BME280;54534;43.612;1.572;2023-03-03T15:29:58;99508.91;;;17.97;35.02
67738;BME280;54534;43.612;1.572;2023-03-03T15:32:33;99504.47;;;17.98;35.09
67738;BME280;54534;43.612;1.572;2023-03-03T15:40:33;99498.28;;;17.97;35.17
67738;BME280;54534;43.612;1.572;2023-03-03T15:45:45;99505.31;;;17.98;35.37
67738;BME280;54534;43.612;1.572;2023-03-03T15:48:22;99502.66;;;17.98;34.78
67738;BME280;54534;43.612;1.572;2023-03-03T15:51:23;99507.00;;;17.99;35.18
67738;BME280;54534;43.612;1.572;2023-03-03T16:02:17;99503.50;;;17.99;35.09
67738;BME280;54534;43.612;1.572;2023-03-03T16:13:15;99500.00;;;17.98;35.20
67738;BME280;54534;43.612;1.572;2023-03-03T16:16:02;99492.97;;;17.97;34.99
67738;BME280;54534;43.612;1.572;2023-03-03T16:24:31;99499.13;;;17.98;34.71
67738;BME280;54534;43.612;1.572;2023-03-03T16:27:20;99505.31;;;17.98;34.97
67738;BME280;54534;43.612;1.572;2023-03-03T16:35:37;99496.34;;;17.99;35.02
67738;BME280;54534;43.612;1.572;2023-03-03T16:38:21;99499.00;;;17.99;34.78
67738;BME280;54534;43.612;1.572;2023-03-03T16:40:54;99514.03;;;18.00;34.77
67738;BME280;54534;43.612;1.572;2023-03-03T16:46:32;99512.22;;;18.01;34.77
67738;BME280;54534;43.612;1.572;2023-03-03T16:49:20;99518.41;;;18.01;35.01
67738;BME280;54534;43.612;1.572;2023-03-03T16:52:11;99521.16;;;18.00;34.67
67738;BME280;54534;43.612;1.572;2023-03-03T16:54:58;99510.50;;;18.00;34.72
67738;BME280;54534;43.612;1.572;2023-03-03T16:57:33;99520.19;;;18.01;34.70
67738;BME280;54534;43.612;1.572;2023-03-03T17:00:13;99525.53;;;18.01;34.72
67738;BME280;54534;43.612;1.572;2023-03-03T17:08:27;99531.69;;;18.01;34.84
67738;BME280;54534;43.612;1.572;2023-03-03T17:19:16;99542.34;;;18.01;34.89
67738;BME280;54534;43.612;1.572;2023-03-03T17:22:07;99542.34;;;18.01;35.01
67738;BME280;54534;43.612;1.572;2023-03-03T17:24:50;99545.84;;;18.02;34.85
67738;BME280;54534;43.612;1.572;2023-03-03T17:28:04;99543.19;;;18.02;35.07
67738;BME280;54534;43.612;1.572;2023-03-03T17:33:33;99548.41;;;18.04;35.13
67738;BME280;54534;43.612;1.572;2023-03-03T17:36:12;99550.19;;;18.03;34.59
67738;BME280;54534;43.612;1.572;2023-03-03T17:41:42;99562.66;;;18.03;34.62
67738;BME280;54534;43.612;1.572;2023-03-03T17:44:22;99571.47;;;18.03;34.69
67738;BME280;54534;43.612;1.572;2023-03-03T17:46:53;99568.81;;;18.03;34.83
67738;BME280;54534;43.612;1.572;2023-03-03T17:57:51;99578.63;;;18.03;34.88
67738;BME280;54534;43.612;1.572;2023-03-03T18:22:44;99603.53;;;18.01;34.72
67738;BME280;54534;43.612;1.572;2023-03-03T18:25:13;99606.19;;;18.01;34.89
67738;BME280;54534;43.612;1.572;2023-03-03T18:27:41;99610.53;;;18.03;34.50
67738;BME280;54534;43.612;1.572;2023-03-03T18:35:41;99615.78;;;18.04;34.74
67738;BME280;54534;43.612;1.572;2023-03-03T18:43:52;99615.84;;;18.03;35.00
67738;BME280;54534;43.612;1.572;2023-03-03T18:49:07;99617.69;;;18.02;34.67
67738;BME280;54534;43.612;1.572;2023-03-03T18:54:23;99614.91;;;18.04;34.91
67738;BME280;54534;43.612;1.572;2023-03-03T19:02:16;99624.59;;;18.05;34.46
67738;BME280;54534;43.612;1.572;2023-03-03T19:07:42;99627.28;;;18.05;34.50
67738;BME280;54534;43.612;1.572;2023-03-03T19:12:55;99630.75;;;18.05;35.08